Search for airport 
image banner adimage banner adimage banner ad
image banner ad

CA175 - Pearce Point

Located in , Canada

ICAO - , IATA -

Data provided by Airmate  

General information

Coordinates: N69°48'0" W122°40'0"
Elevation is feet MSL.
 
View others Airports in Northwest Territories

Operational data

Special qualification required
Current time UTC:
Current local time:
METAR: CYPC 221500Z 16019G25KT 15SM FEW018 SCT120 02/M01 A2950 RMK SC1AC3 SC TR SLP990
TAF: TAF AMD CYPC 221517Z 2215/2223 16018G28KT P6SM FEW020 SCT120 BKN220 FM221700 17014G24KT P6SM FEW015 BKN200 FM222000 16010G20KT P6SM SCT020 BKN200 TEMPO 2220/2223 BKN020 RMK NXT FCST BY 221900Z
View NOTAMs / SUP AIP / TFR affecting this airport [VIEW]
Communications frequencies: [VIEW]

Runways:

Airport contact information

Address: Canada

Satellite view of CA175